Des Moines International Airport
KDSM : now visible

Airfield :











YOU CAN JOIN US ON...

 
LOGIN :

Register | Disclaimer

   EN    FR    IT 

 









Legend :    VFR   Marginal VFR   IFR   Intensive IFR   Very Intensive IFR
Visi :
Ceiling :
>= 8 km
>= 3000ft
5 to 8 km
1000 to 3000 ft
1500m to 5 km
500 to 1000 ft
800 to 1500m
200 to 500 ft
< 800m
< 200 ft
Symbols :   Thunderstorms  Fog  Heavy snow  Heavy precipitations  Wind > 20 kt






- Airport Elevation : 958 ft
- IATA code : DSM


KDSM - Des Moines International

CURRENT METAR :
  • 240254Z 22004KT 10SM FEW045 20/16 A2995 RMK AO2 SLP138 T02000156 53008

EXPIRED METARs :
  • 240154Z 19006KT 10SM FEW047 FEW250 21/16 A2994 RMK AO2 SLP135 T02110156
  • 240054Z 18004KT 10SM FEW040 SCT250 22/16 A2993 RMK AO2 SLP132 T02220156

TAF KDSM
Valid from the 24 at 00:00 until the 25 at 00:00 UTC


232334Z 2400/2424 21009KT P6SM FEW250
FM241900 VRB06KT P6SM FEW045 SCT200
KZMP FIR / North America



MET'MAP, your aeronautical weather chart ! - Copyright ORBIFLY December 2007 - Disclaimer

ORBIFLY MET'MAP TEAM :

Programming & Development : Alexandra Zaïnal
Concept & original design : Baudouin d'Aumeries
Assistance for programming : Marc-Olivier Méhu
Technical & hardware support : Manuel Goepfert

Contact : metmap@orbifly.com




SOURCES & CREDITS :

   NOAA       Earth
Advisory